Aviation Digital Data Service (ADDS)

Output produced by METARs form (0743 UTC 23 October 2018)
found at http://aviationweather.gov/metar/data/
 
KTYR 230530Z 2306/2406 VRB03KT P6SM SCT120 OVC250 
     FM231500 06008KT P6SM OVC120 
     FM240000 07004KT P6SM SCT120 BKN250